Darstellungsparameter: Aktuell verwendete Einstellungen:
Skalierung der Graphiken ... ?
xyx+y,   Skalierungsfaktor:      Skalierung: Modus: x, Faktor: 1
Darstellungszeitraum ... ?
Vom - - bis: - -   Zeitraum: 01.12.2018 - 01.12.2018
Min/Max/Avg-Anzeige ... ?
Zeige MMA aktuell
Zeige MMA Monat
Zeige MMA alles
Zeige --A aktuell
Zeige --A Monat
Zeige --A alles
Keine MMA-Anzeige
MMA:
Average (ber die Originaldaten)
MMA-Basis: 01.12.2018 - 01.12.2018
Quicknavigation für Darstellung... ?
Tage:      1T, 2T, 3T, 5T -1T -2T -3T -5T +1T +2T +3T +5T
Wochen: 1W, 2W, 3W -1W -2W -3W +1W +2W +3W
Monate: 1M, 3M, 6M -1M -3M -6M +1M +3M +6M
Jahre:    1J, 3J, 5J, 10J -1J -3J -5J -10J +1J +3J +5J +10J
Nutze für die Darstellung ... ?
Originaldaten oder Mittelwerte auf ...
Stundenbasis Tagesbasis Wochenbasis
Monatsbasis Jahresbasis      Datenbasis: Original-Daten
Darstellen als:
Statistik (Auto) Statistik J:M      Darstellung:
Zur Graphik,    zurück zur Übersicht aller Sensoren.
 
Tabellarische Datenbersicht: ?
 
Sensor: Nr:Datum:Temp:Abs-Feuchte:Windchill:Wind:
Aussen-T/F 1 01-12-2018 00:00:00 5.3 C 6.58 g/m*3 5.3 C 0 km/h
2 01-12-2018 00:05:00 5.3 C 6.58 g/m*3 5.3 C 0 km/h
3 01-12-2018 00:10:00 5.2 C 6.54 g/m*3 5.2 C 0 km/h
4 01-12-2018 00:15:00 5.2 C 6.54 g/m*3 5.2 C 0 km/h
5 01-12-2018 00:20:00 5.2 C 6.54 g/m*3 5.2 C 0 km/h
6 01-12-2018 00:25:00 5.2 C 6.54 g/m*3 5.2 C 0 km/h
7 01-12-2018 00:30:00 5.2 C 6.54 g/m*3 5.2 C 0 km/h
8 01-12-2018 00:35:00 5.3 C 6.65 g/m*3 5.3 C 0 km/h
9 01-12-2018 00:40:00 5.5 C 6.74 g/m*3 5.5 C 0 km/h
10 01-12-2018 00:45:00 5.6 C 6.79 g/m*3 5.6 C 0 km/h
11 01-12-2018 00:50:00 5.4 C 6.7 g/m*3 5.4 C 0 km/h
12 01-12-2018 00:55:00 5.2 C 6.54 g/m*3 5.2 C 0 km/h
13 01-12-2018 01:00:00 5.1 C 6.5 g/m*3 5.1 C 0 km/h
14 01-12-2018 01:05:00 5 C 6.46 g/m*3 5 C 0 km/h
15 01-12-2018 01:10:00 5 C 6.52 g/m*3 5 C 0 km/h
16 01-12-2018 01:15:00 5.1 C 6.57 g/m*3 5.1 C 1.6 km/h
17 01-12-2018 01:20:00 5.3 C 6.65 g/m*3 5.3 C 3.2 km/h
18 01-12-2018 01:25:00 5.3 C 6.65 g/m*3 5.3 C 3.2 km/h
19 01-12-2018 01:30:00 5.3 C 6.65 g/m*3 5.3 C 1.6 km/h
20 01-12-2018 01:35:00 5.4 C 6.7 g/m*3 5.4 C 3.2 km/h
21 01-12-2018 01:40:00 5.5 C 6.74 g/m*3 5.5 C 4.8 km/h
22 01-12-2018 01:45:00 5.6 C 6.79 g/m*3 5.6 C 4.8 km/h
23 01-12-2018 01:50:00 5.8 C 6.95 g/m*3 5.8 C 3.2 km/h
24 01-12-2018 01:55:00 5.8 C 6.95 g/m*3 5.8 C 3.2 km/h
25 01-12-2018 02:00:00 5.9 C 6.92 g/m*3 5.9 C 3.2 km/h
Sensor: Nr:Datum:Temp:Abs-Feuchte:Windchill:Wind:
Aussen-T/F 26 01-12-2018 02:05:00 5.9 C 6.92 g/m*3 5.9 C 3.2 km/h
27 01-12-2018 02:10:00 6 C 6.97 g/m*3 4.75 C 6.4 km/h
28 01-12-2018 02:15:00 6 C 7.04 g/m*3 4.75 C 6.4 km/h
29 01-12-2018 02:20:00 6 C 7.04 g/m*3 6 C 3.2 km/h
30 01-12-2018 02:25:00 6 C 6.97 g/m*3 6 C 3.2 km/h
31 01-12-2018 02:30:00 5.9 C 6.92 g/m*3 5.9 C 1.6 km/h
32 01-12-2018 02:35:00 5.9 C 6.92 g/m*3 5.9 C 3.2 km/h
33 01-12-2018 02:40:00 5.8 C 6.88 g/m*3 5.8 C 3.2 km/h
34 01-12-2018 02:45:00 5.7 C 6.83 g/m*3 5.7 C 3.2 km/h
35 01-12-2018 02:50:00 5.7 C 6.83 g/m*3 5.7 C 3.2 km/h
36 01-12-2018 02:55:00 5.6 C 6.79 g/m*3 5.6 C 3.2 km/h
37 01-12-2018 03:00:00 5.5 C 6.74 g/m*3 5.5 C 0 km/h
38 01-12-2018 03:05:00 5.4 C 6.7 g/m*3 5.4 C 1.6 km/h
39 01-12-2018 03:10:00 5.3 C 6.65 g/m*3 5.3 C 1.6 km/h
40 01-12-2018 03:15:00 5.2 C 6.61 g/m*3 5.2 C 0 km/h
41 01-12-2018 03:20:00 5.1 C 6.57 g/m*3 5.1 C 1.6 km/h
42 01-12-2018 03:25:00 5.1 C 6.57 g/m*3 5.1 C 0 km/h
43 01-12-2018 03:30:00 5.1 C 6.57 g/m*3 5.1 C 1.6 km/h
44 01-12-2018 03:35:00 5.2 C 6.61 g/m*3 5.2 C 0 km/h
45 01-12-2018 03:40:00 5.2 C 6.61 g/m*3 5.2 C 1.6 km/h
46 01-12-2018 03:45:00 5.3 C 6.65 g/m*3 5.3 C 0 km/h
47 01-12-2018 03:50:00 5.3 C 6.65 g/m*3 5.3 C 1.6 km/h
48 01-12-2018 03:55:00 5.3 C 6.65 g/m*3 5.3 C 0 km/h
49 01-12-2018 04:00:00 5.4 C 6.7 g/m*3 5.4 C 0 km/h
50 01-12-2018 04:05:00 5.4 C 6.7 g/m*3 5.4 C 0 km/h
Sensor: Nr:Datum:Temp:Abs-Feuchte:Windchill:Wind:
Aussen-T/F 51 01-12-2018 04:10:00 5.3 C 6.65 g/m*3 5.3 C 0 km/h
52 01-12-2018 04:15:00 5.3 C 6.65 g/m*3 5.3 C 0 km/h
53 01-12-2018 04:20:00 5.2 C 6.61 g/m*3 5.2 C 0 km/h
54 01-12-2018 04:25:00 5.1 C 6.57 g/m*3 5.1 C 0 km/h
55 01-12-2018 04:30:00 5.1 C 6.57 g/m*3 5.1 C 0 km/h
56 01-12-2018 04:35:00 5.1 C 6.57 g/m*3 5.1 C 1.6 km/h
57 01-12-2018 04:40:00 5.1 C 6.57 g/m*3 5.1 C 0 km/h
58 01-12-2018 04:45:00 4.9 C 6.48 g/m*3 4.9 C 0 km/h
59 01-12-2018 04:50:00 4.9 C 6.48 g/m*3 4.9 C 1.6 km/h
60 01-12-2018 04:55:00 4.8 C 6.44 g/m*3 4.8 C 0 km/h
61 01-12-2018 05:00:00 4.8 C 6.44 g/m*3 4.8 C 0 km/h
62 01-12-2018 05:05:00 4.8 C 6.44 g/m*3 4.8 C 0 km/h
63 01-12-2018 05:10:00 4.8 C 6.44 g/m*3 4.8 C 1.6 km/h
64 01-12-2018 05:15:00 4.8 C 6.44 g/m*3 4.8 C 1.6 km/h
65 01-12-2018 05:20:00 4.8 C 6.44 g/m*3 4.8 C 0 km/h
66 01-12-2018 05:25:00 4.9 C 6.48 g/m*3 4.9 C 0 km/h
67 01-12-2018 05:30:00 4.9 C 6.48 g/m*3 4.9 C 0 km/h
68 01-12-2018 05:35:00 4.9 C 6.48 g/m*3 4.9 C 0 km/h
69 01-12-2018 05:40:00 4.9 C 6.48 g/m*3 4.9 C 0 km/h
70 01-12-2018 05:45:00 5 C 6.59 g/m*3 5 C 0 km/h
71 01-12-2018 05:50:00 5.1 C 6.63 g/m*3 5.1 C 0 km/h
72 01-12-2018 05:55:00 5.2 C 6.68 g/m*3 5.2 C 0 km/h
73 01-12-2018 06:00:00 5.2 C 6.68 g/m*3 5.2 C 0 km/h
74 01-12-2018 06:05:00 5.3 C 6.72 g/m*3 5.3 C 0 km/h
75 01-12-2018 06:10:00 5.3 C 6.72 g/m*3 5.3 C 0 km/h
Sensor: Nr:Datum:Temp:Abs-Feuchte:Windchill:Wind:
Aussen-T/F 76 01-12-2018 06:15:00 5.4 C 6.77 g/m*3 5.4 C 1.6 km/h
77 01-12-2018 06:20:00 5.5 C 6.81 g/m*3 5.5 C 0 km/h
78 01-12-2018 06:25:00 5.7 C 6.9 g/m*3 5.7 C 0 km/h
79 01-12-2018 06:30:00 5.7 C 6.9 g/m*3 5.7 C 0 km/h
80 01-12-2018 06:35:00 5.7 C 6.9 g/m*3 5.7 C 3.2 km/h
81 01-12-2018 06:40:00 5.7 C 6.9 g/m*3 5.7 C 0 km/h
82 01-12-2018 06:45:00 5.7 C 6.9 g/m*3 5.7 C 0 km/h
83 01-12-2018 06:50:00 5.6 C 6.86 g/m*3 5.6 C 1.6 km/h
84 01-12-2018 06:55:00 5.6 C 6.86 g/m*3 5.6 C 0 km/h
85 01-12-2018 07:00:00 5.6 C 6.86 g/m*3 5.6 C 0 km/h
86 01-12-2018 07:05:00 5.6 C 6.86 g/m*3 5.6 C 0 km/h
87 01-12-2018 07:10:00 5.8 C 6.95 g/m*3 5.8 C 4.8 km/h
88 01-12-2018 07:15:00 5.8 C 6.95 g/m*3 5.8 C 1.6 km/h
89 01-12-2018 07:20:00 5.8 C 6.95 g/m*3 5.8 C 4.8 km/h
90 01-12-2018 07:25:00 6 C 7.04 g/m*3 6 C 4.8 km/h
91 01-12-2018 07:30:00 6.2 C 7.13 g/m*3 4.15 C 9.7 km/h
92 01-12-2018 07:35:00 6.4 C 7.23 g/m*3 6.4 C 3.2 km/h
93 01-12-2018 07:40:00 6.5 C 7.27 g/m*3 6.5 C 4.8 km/h
94 01-12-2018 07:45:00 6.6 C 7.32 g/m*3 6.6 C 1.6 km/h
95 01-12-2018 07:50:00 6.6 C 7.32 g/m*3 4.99 C 8.1 km/h
96 01-12-2018 07:55:00 6.6 C 7.32 g/m*3 6.6 C 1.6 km/h
97 01-12-2018 08:00:00 6.5 C 7.27 g/m*3 6.5 C 0 km/h
98 01-12-2018 08:05:00 6.4 C 7.15 g/m*3 6.4 C 0 km/h
99 01-12-2018 08:10:00 6.3 C 7.11 g/m*3 6.3 C 1.6 km/h
100 01-12-2018 08:15:00 6.2 C 7.06 g/m*3 6.2 C 4.8 km/h
Sensor: Nr:Datum:Temp:Abs-Feuchte:Windchill:Wind:
Aussen-T/F 101 01-12-2018 08:20:00 6.3 C 7.11 g/m*3 6.3 C 1.6 km/h
102 01-12-2018 08:25:00 6.4 C 7.15 g/m*3 6.4 C 4.8 km/h
103 01-12-2018 08:30:00 6.6 C 7.25 g/m*3 6.6 C 3.2 km/h
104 01-12-2018 08:35:00 6.6 C 7.25 g/m*3 6.6 C 3.2 km/h
105 01-12-2018 08:40:00 6.7 C 7.37 g/m*3 6.7 C 4.8 km/h
106 01-12-2018 08:45:00 6.8 C 7.42 g/m*3 6.8 C 1.6 km/h
107 01-12-2018 08:50:00 7 C 7.52 g/m*3 7 C 4.8 km/h
108 01-12-2018 08:55:00 7.1 C 7.49 g/m*3 6.02 C 6.4 km/h
109 01-12-2018 09:00:00 7.1 C 7.49 g/m*3 7.1 C 0 km/h
110 01-12-2018 09:05:00 7.2 C 7.54 g/m*3 7.2 C 3.2 km/h
111 01-12-2018 09:10:00 7.2 C 7.54 g/m*3 7.2 C 0 km/h
112 01-12-2018 09:15:00 7.1 C 7.49 g/m*3 7.1 C 0 km/h
113 01-12-2018 09:20:00 7.1 C 7.49 g/m*3 7.1 C 0 km/h
114 01-12-2018 09:25:00 7.1 C 7.49 g/m*3 7.1 C 0 km/h
115 01-12-2018 09:30:00 7.1 C 7.49 g/m*3 7.1 C 0 km/h
116 01-12-2018 09:35:00 7.2 C 7.54 g/m*3 7.2 C 0 km/h
117 01-12-2018 09:40:00 7.3 C 7.58 g/m*3 7.3 C 0 km/h
118 01-12-2018 09:45:00 7.3 C 7.58 g/m*3 7.3 C 0 km/h
119 01-12-2018 09:50:00 7.4 C 7.63 g/m*3 7.4 C 0 km/h
120 01-12-2018 09:55:00 7.6 C 7.73 g/m*3 7.6 C 0 km/h
121 01-12-2018 10:00:00 7.7 C 7.78 g/m*3 7.7 C 0 km/h
122 01-12-2018 10:05:00 7.7 C 7.78 g/m*3 7.7 C 0 km/h
123 01-12-2018 10:10:00 7.8 C 7.83 g/m*3 7.8 C 0 km/h
124 01-12-2018 10:15:00 7.8 C 7.75 g/m*3 7.8 C 0 km/h
125 01-12-2018 10:20:00 7.8 C 7.75 g/m*3 7.8 C 0 km/h
Sensor: Nr:Datum:Temp:Abs-Feuchte:Windchill:Wind:
Aussen-T/F 126 01-12-2018 10:25:00 7.9 C 7.8 g/m*3 7.9 C 4.8 km/h
127 01-12-2018 10:30:00 7.9 C 7.8 g/m*3 7.9 C 3.2 km/h
128 01-12-2018 10:35:00 7.9 C 7.8 g/m*3 7.9 C 0 km/h
129 01-12-2018 10:40:00 8.1 C 7.9 g/m*3 8.1 C 1.6 km/h
130 01-12-2018 10:45:00 8.2 C 7.96 g/m*3 8.2 C 3.2 km/h
131 01-12-2018 10:50:00 8.3 C 7.92 g/m*3 6.99 C 8.1 km/h
132 01-12-2018 10:55:00 8.4 C 7.89 g/m*3 8.4 C 3.2 km/h
133 01-12-2018 11:00:00 8.6 C 7.99 g/m*3 7.75 C 6.4 km/h
134 01-12-2018 11:05:00 8.7 C 7.96 g/m*3 8.7 C 3.2 km/h
135 01-12-2018 11:10:00 8.7 C 7.87 g/m*3 8.7 C 3.2 km/h
136 01-12-2018 11:15:00 8.8 C 7.92 g/m*3 8.8 C 3.2 km/h
137 01-12-2018 11:20:00 8.8 C 7.83 g/m*3 8.8 C 0 km/h
138 01-12-2018 11:25:00 8.9 C 7.88 g/m*3 8.1 C 6.4 km/h
139 01-12-2018 11:30:00 9 C 7.85 g/m*3 9 C 1.6 km/h
140 01-12-2018 11:35:00 9.1 C 7.9 g/m*3 9.1 C 1.6 km/h
141 01-12-2018 11:40:00 9.2 C 7.95 g/m*3 9.2 C 0 km/h
142 01-12-2018 11:45:00 9.2 C 7.86 g/m*3 9.2 C 1.6 km/h
143 01-12-2018 11:50:00 9.3 C 7.91 g/m*3 9.3 C 4.8 km/h
144 01-12-2018 11:55:00 9.4 C 7.96 g/m*3 9.4 C 0 km/h
145 01-12-2018 12:00:00 9.4 C 7.96 g/m*3 9.4 C 0 km/h
146 01-12-2018 12:05:00 9.6 C 8.06 g/m*3 9.6 C 0 km/h
147 01-12-2018 12:10:00 9.6 C 7.97 g/m*3 9.6 C 1.6 km/h
148 01-12-2018 12:15:00 9.7 C 8.02 g/m*3 9.7 C 1.6 km/h
149 01-12-2018 12:20:00 9.7 C 7.93 g/m*3 9.7 C 1.6 km/h
150 01-12-2018 12:25:00 9.7 C 7.93 g/m*3 9.7 C 0 km/h
Sensor: Nr:Datum:Temp:Abs-Feuchte:Windchill:Wind:
Aussen-T/F 151 01-12-2018 12:30:00 9.7 C 7.93 g/m*3 9.7 C 4.8 km/h
152 01-12-2018 12:35:00 9.8 C 7.98 g/m*3 9.8 C 3.2 km/h
153 01-12-2018 12:40:00 9.9 C 8.03 g/m*3 9.9 C 4.8 km/h
154 01-12-2018 12:45:00 9.9 C 7.94 g/m*3 9.9 C 4.8 km/h
155 01-12-2018 12:50:00 10 C 7.99 g/m*3 10 C 4.8 km/h
156 01-12-2018 12:55:00 10 C 7.99 g/m*3 10 C 4.8 km/h
157 01-12-2018 13:00:00 9.9 C 7.84 g/m*3 8.87 C 8.1 km/h
158 01-12-2018 13:05:00 9.9 C 7.84 g/m*3 8.87 C 8.1 km/h
159 01-12-2018 13:10:00 9.9 C 7.84 g/m*3 9.9 C 3.2 km/h
160 01-12-2018 13:15:00 9.8 C 7.7 g/m*3 9.8 C 4.8 km/h
161 01-12-2018 13:20:00 9.8 C 7.7 g/m*3 8.18 C 11.3 km/h
162 01-12-2018 13:25:00 9.8 C 7.7 g/m*3 8.18 C 11.3 km/h
163 01-12-2018 13:30:00 9.8 C 7.7 g/m*3 9.14 C 6.4 km/h
164 01-12-2018 13:35:00 9.8 C 7.61 g/m*3 9.14 C 6.4 km/h
165 01-12-2018 13:40:00 9.8 C 7.7 g/m*3 9.8 C 1.6 km/h
166 01-12-2018 13:45:00 9.7 C 7.65 g/m*3 9.7 C 4.8 km/h
167 01-12-2018 13:50:00 9.7 C 7.56 g/m*3 9.7 C 0 km/h
168 01-12-2018 13:55:00 9.6 C 7.6 g/m*3 9.6 C 0 km/h
169 01-12-2018 14:00:00 9.5 C 7.65 g/m*3 9.5 C 0 km/h
170 01-12-2018 14:05:00 9.3 C 7.46 g/m*3 9.3 C 1.6 km/h
171 01-12-2018 14:10:00 9.3 C 7.55 g/m*3 9.3 C 1.6 km/h
172 01-12-2018 14:15:00 9.3 C 7.55 g/m*3 9.3 C 4.8 km/h
173 01-12-2018 14:20:00 9.3 C 7.55 g/m*3 9.3 C 1.6 km/h
174 01-12-2018 14:25:00 9.4 C 7.6 g/m*3 8.28 C 8.1 km/h
175 01-12-2018 14:30:00 9.5 C 7.46 g/m*3 6.98 C 17.7 km/h
Sensor: Nr:Datum:Temp:Abs-Feuchte:Windchill:Wind:
Aussen-T/F 176 01-12-2018 14:35:00 9.6 C 7.42 g/m*3 8.91 C 6.4 km/h
177 01-12-2018 14:40:00 9.7 C 7.56 g/m*3 9.7 C 3.2 km/h
178 01-12-2018 14:45:00 9.7 C 7.47 g/m*3 9.02 C 6.4 km/h
179 01-12-2018 14:50:00 9.7 C 7.56 g/m*3 9.02 C 6.4 km/h
180 01-12-2018 14:55:00 9.7 C 7.56 g/m*3 9.7 C 4.8 km/h
181 01-12-2018 15:00:00 9.7 C 7.56 g/m*3 9.7 C 3.2 km/h
182 01-12-2018 15:05:00 9.7 C 7.56 g/m*3 9.7 C 1.6 km/h
183 01-12-2018 15:10:00 9.7 C 7.65 g/m*3 9.7 C 0 km/h
184 01-12-2018 15:15:00 9.7 C 7.65 g/m*3 9.7 C 0 km/h
185 01-12-2018 15:20:00 9.5 C 7.55 g/m*3 9.5 C 0 km/h
186 01-12-2018 15:25:00 9.4 C 7.51 g/m*3 9.4 C 0 km/h
187 01-12-2018 15:30:00 9.4 C 7.6 g/m*3 9.4 C 0 km/h
188 01-12-2018 15:35:00 9.4 C 7.69 g/m*3 9.4 C 0 km/h
189 01-12-2018 15:40:00 9.3 C 7.64 g/m*3 9.3 C 0 km/h
190 01-12-2018 15:45:00 9.3 C 7.73 g/m*3 9.3 C 0 km/h
191 01-12-2018 15:50:00 9.3 C 7.64 g/m*3 9.3 C 3.2 km/h
192 01-12-2018 15:55:00 9.3 C 7.73 g/m*3 9.3 C 0 km/h
193 01-12-2018 16:00:00 9.2 C 7.68 g/m*3 9.2 C 0 km/h
194 01-12-2018 16:05:00 9.2 C 7.68 g/m*3 9.2 C 1.6 km/h
195 01-12-2018 16:10:00 9.1 C 7.63 g/m*3 9.1 C 0 km/h
196 01-12-2018 16:15:00 9.1 C 7.45 g/m*3 9.1 C 3.2 km/h
197 01-12-2018 16:20:00 9.1 C 7.54 g/m*3 9.1 C 0 km/h
198 01-12-2018 16:25:00 9.1 C 7.54 g/m*3 9.1 C 1.6 km/h
199 01-12-2018 16:30:00 9 C 7.41 g/m*3 9 C 3.2 km/h
200 01-12-2018 16:35:00 9 C 7.49 g/m*3 9 C 0 km/h
Sensor: Nr:Datum:Temp:Abs-Feuchte:Windchill:Wind:
Aussen-T/F 201 01-12-2018 16:40:00 8.9 C 7.45 g/m*3 8.9 C 1.6 km/h
202 01-12-2018 16:45:00 8.8 C 7.4 g/m*3 8.8 C 0 km/h
203 01-12-2018 16:50:00 8.8 C 7.4 g/m*3 8.8 C 3.2 km/h
204 01-12-2018 16:55:00 8.8 C 7.4 g/m*3 8.8 C 0 km/h
205 01-12-2018 17:00:00 8.8 C 7.31 g/m*3 8.8 C 3.2 km/h
206 01-12-2018 17:05:00 8.9 C 7.36 g/m*3 8.9 C 3.2 km/h
207 01-12-2018 17:10:00 8.9 C 7.53 g/m*3 8.9 C 0 km/h
208 01-12-2018 17:15:00 8.9 C 7.53 g/m*3 8.9 C 0 km/h
209 01-12-2018 17:20:00 8.9 C 7.71 g/m*3 8.9 C 0 km/h
210 01-12-2018 17:25:00 8.8 C 7.75 g/m*3 8.8 C 0 km/h
211 01-12-2018 17:30:00 8.6 C 7.65 g/m*3 8.6 C 0 km/h
212 01-12-2018 17:35:00 8.5 C 7.68 g/m*3 8.5 C 1.6 km/h
213 01-12-2018 17:40:00 8.4 C 7.72 g/m*3 8.4 C 0 km/h
214 01-12-2018 17:45:00 8.3 C 7.67 g/m*3 8.3 C 3.2 km/h
215 01-12-2018 17:50:00 8.2 C 7.62 g/m*3 8.2 C 1.6 km/h
216 01-12-2018 17:55:00 8.1 C 7.66 g/m*3 8.1 C 0 km/h
217 01-12-2018 18:00:00 8 C 7.61 g/m*3 8 C 0 km/h
218 01-12-2018 18:05:00 7.9 C 7.56 g/m*3 7.9 C 3.2 km/h
219 01-12-2018 18:10:00 7.9 C 7.64 g/m*3 7.9 C 1.6 km/h
220 01-12-2018 18:15:00 7.8 C 7.59 g/m*3 7.8 C 0 km/h
221 01-12-2018 18:20:00 7.8 C 7.59 g/m*3 7.8 C 0 km/h
222 01-12-2018 18:25:00 7.7 C 7.54 g/m*3 7.7 C 1.6 km/h
223 01-12-2018 18:30:00 7.7 C 7.54 g/m*3 7.7 C 0 km/h
224 01-12-2018 18:35:00 7.6 C 7.57 g/m*3 7.6 C 1.6 km/h
225 01-12-2018 18:40:00 7.6 C 7.49 g/m*3 7.6 C 1.6 km/h
Sensor: Nr:Datum:Temp:Abs-Feuchte:Windchill:Wind:
Aussen-T/F 226 01-12-2018 18:45:00 7.5 C 7.44 g/m*3 7.5 C 1.6 km/h
227 01-12-2018 18:50:00 7.5 C 7.44 g/m*3 7.5 C 4.8 km/h
228 01-12-2018 18:55:00 7.6 C 7.49 g/m*3 7.6 C 1.6 km/h
229 01-12-2018 19:00:00 7.6 C 7.49 g/m*3 7.6 C 0 km/h
230 01-12-2018 19:05:00 7.6 C 7.49 g/m*3 7.6 C 3.2 km/h
231 01-12-2018 19:10:00 7.6 C 7.49 g/m*3 7.6 C 1.6 km/h
232 01-12-2018 19:15:00 7.6 C 7.49 g/m*3 7.6 C 1.6 km/h
233 01-12-2018 19:20:00 7.7 C 7.46 g/m*3 6.28 C 8.1 km/h
234 01-12-2018 19:25:00 7.8 C 7.51 g/m*3 7.8 C 1.6 km/h
235 01-12-2018 19:30:00 7.9 C 7.56 g/m*3 6.94 C 6.4 km/h
236 01-12-2018 19:35:00 8 C 7.52 g/m*3 8 C 4.8 km/h
237 01-12-2018 19:40:00 8.1 C 7.57 g/m*3 8.1 C 1.6 km/h
238 01-12-2018 19:45:00 8.1 C 7.49 g/m*3 8.1 C 4.8 km/h
239 01-12-2018 19:50:00 8.2 C 7.45 g/m*3 6.87 C 8.1 km/h
240 01-12-2018 19:55:00 8.3 C 7.5 g/m*3 8.3 C 4.8 km/h
241 01-12-2018 20:00:00 8.3 C 7.42 g/m*3 8.3 C 1.6 km/h
242 01-12-2018 20:05:00 8.3 C 7.5 g/m*3 8.3 C 1.6 km/h
243 01-12-2018 20:10:00 8.3 C 7.42 g/m*3 8.3 C 1.6 km/h
244 01-12-2018 20:15:00 8.4 C 7.47 g/m*3 6.78 C 9.7 km/h
245 01-12-2018 20:20:00 8.4 C 7.47 g/m*3 8.4 C 3.2 km/h
246 01-12-2018 20:25:00 8.4 C 7.47 g/m*3 8.4 C 4.8 km/h
247 01-12-2018 20:30:00 8.4 C 7.47 g/m*3 8.4 C 0 km/h
248 01-12-2018 20:35:00 8.4 C 7.55 g/m*3 8.4 C 1.6 km/h
249 01-12-2018 20:40:00 8.3 C 7.5 g/m*3 8.3 C 3.2 km/h
250 01-12-2018 20:45:00 8.3 C 7.42 g/m*3 7.41 C 6.4 km/h
Sensor: Nr:Datum:Temp:Abs-Feuchte:Windchill:Wind:
Aussen-T/F 251 01-12-2018 20:50:00 8.3 C 7.5 g/m*3 8.3 C 0 km/h
252 01-12-2018 20:55:00 8.3 C 7.5 g/m*3 8.3 C 0 km/h
253 01-12-2018 21:00:00 8.3 C 7.5 g/m*3 8.3 C 1.6 km/h
254 01-12-2018 21:05:00 8.3 C 7.5 g/m*3 7.41 C 6.4 km/h
255 01-12-2018 21:10:00 8.3 C 7.5 g/m*3 8.3 C 0 km/h
256 01-12-2018 21:15:00 8.3 C 7.5 g/m*3 8.3 C 3.2 km/h
257 01-12-2018 21:20:00 8.3 C 7.5 g/m*3 8.3 C 0 km/h
258 01-12-2018 21:25:00 8.3 C 7.5 g/m*3 8.3 C 3.2 km/h
259 01-12-2018 21:30:00 8.4 C 7.55 g/m*3 8.4 C 3.2 km/h
260 01-12-2018 21:35:00 8.4 C 7.55 g/m*3 7.52 C 6.4 km/h
261 01-12-2018 21:40:00 8.6 C 7.56 g/m*3 8.6 C 4.8 km/h
262 01-12-2018 21:45:00 8.6 C 7.56 g/m*3 8.6 C 3.2 km/h
263 01-12-2018 21:50:00 8.6 C 7.65 g/m*3 7.75 C 6.4 km/h
264 01-12-2018 21:55:00 8.6 C 7.65 g/m*3 8.6 C 1.6 km/h
265 01-12-2018 22:00:00 8.6 C 7.65 g/m*3 8.6 C 0 km/h
266 01-12-2018 22:05:00 8.6 C 7.73 g/m*3 8.6 C 0 km/h
267 01-12-2018 22:10:00 8.5 C 7.68 g/m*3 8.5 C 0 km/h
268 01-12-2018 22:15:00 8.4 C 7.63 g/m*3 8.4 C 3.2 km/h
269 01-12-2018 22:20:00 8.4 C 7.63 g/m*3 8.4 C 1.6 km/h
270 01-12-2018 22:25:00 8.3 C 7.59 g/m*3 8.3 C 0 km/h
271 01-12-2018 22:30:00 8.3 C 7.67 g/m*3 8.3 C 0 km/h
272 01-12-2018 22:35:00 8.3 C 7.59 g/m*3 8.3 C 1.6 km/h
273 01-12-2018 22:40:00 8.3 C 7.59 g/m*3 8.3 C 0 km/h
274 01-12-2018 22:45:00 8.3 C 7.67 g/m*3 8.3 C 0 km/h
275 01-12-2018 22:50:00 8.3 C 7.67 g/m*3 8.3 C 0 km/h
Sensor: Nr:Datum:Temp:Abs-Feuchte:Windchill:Wind:
Aussen-T/F 276 01-12-2018 22:55:00 8.3 C 7.67 g/m*3 8.3 C 0 km/h
277 01-12-2018 23:00:00 8.3 C 7.67 g/m*3 8.3 C 3.2 km/h
278 01-12-2018 23:05:00 8.4 C 7.72 g/m*3 8.4 C 1.6 km/h
279 01-12-2018 23:10:00 8.4 C 7.72 g/m*3 8.4 C 3.2 km/h
280 01-12-2018 23:15:00 8.6 C 7.73 g/m*3 8.6 C 3.2 km/h
281 01-12-2018 23:20:00 8.7 C 7.78 g/m*3 8.7 C 4.8 km/h
282 01-12-2018 23:25:00 8.7 C 7.7 g/m*3 8.7 C 1.6 km/h
283 01-12-2018 23:30:00 8.8 C 7.75 g/m*3 8.8 C 3.2 km/h
284 01-12-2018 23:35:00 8.8 C 7.75 g/m*3 8.8 C 1.6 km/h
285 01-12-2018 23:40:00 8.9 C 7.8 g/m*3 8.9 C 3.2 km/h
286 01-12-2018 23:45:00 8.9 C 7.8 g/m*3 8.9 C 0 km/h
287 01-12-2018 23:50:00 8.9 C 7.8 g/m*3 8.9 C 4.8 km/h
288 01-12-2018 23:55:00 8.9 C 7.8 g/m*3 8.9 C 1.6 km/h

Legende:
   Min
   Max


Maximal/Minimal-Werte vom 01.12.2018 - 01.12.2018

Sensor Min Max Avg
Temp
(Aussen-T/F)
4.8 °C
01-12-2018  04:55:00
10 °C
01-12-2018  12:50:00
7.49 °C
Abs-Feuchte
(Aussen-T/F)
6.44 g/m*3
01-12-2018  04:55:00
8.06 g/m*3
01-12-2018  12:05:00
7.3 g/m*3
Windchill
(Aussen-T/F)
4.15 C
01-12-2018  07:30:00
10 C
01-12-2018  12:50:00
7.36 C

Die Daten stammen von einer Davis Vantage Pro 2 Wetter-Station und werden unter Linux mit der Software wview2wettercgi und aufbereitet. Alle Angaben erfolgen ohne Gewähr für ihre Vollständigkeit oder Richtigkeit.
Kontakt: Rainer Krienke krienke@uni-koblenz.de . Meine Webseiten an der Uni Koblenz oder privat.
Version: $Revision: 0.78 $